sensor_id;sensor_type;location;lat;lon;timestamp;temperature;humidity
16140;DHT22;8175;49.326;12.690;2024-01-11T00:00:59;-8.50;99.90
16140;DHT22;8175;49.326;12.690;2024-01-11T00:03:24;-8.40;99.90
16140;DHT22;8175;49.326;12.690;2024-01-11T00:05:50;-8.50;99.90
16140;DHT22;8175;49.326;12.690;2024-01-11T00:08:16;-8.50;99.90
16140;DHT22;8175;49.326;12.690;2024-01-11T00:10:42;-8.40;99.90
16140;DHT22;8175;49.326;12.690;2024-01-11T00:13:07;-8.40;99.90
16140;DHT22;8175;49.326;12.690;2024-01-11T00:15:33;-8.40;99.90
16140;DHT22;8175;49.326;12.690;2024-01-11T00:17:59;-8.30;99.90
16140;DHT22;8175;49.326;12.690;2024-01-11T00:20:24;-8.30;99.90
16140;DHT22;8175;49.326;12.690;2024-01-11T00:22:50;-8.40;99.90
16140;DHT22;8175;49.326;12.690;2024-01-11T00:25:16;-8.30;99.90
16140;DHT22;8175;49.326;12.690;2024-01-11T00:27:41;-8.50;99.90
16140;DHT22;8175;49.326;12.690;2024-01-11T00:30:07;-8.60;99.90
16140;DHT22;8175;49.326;12.690;2024-01-11T00:32:33;-8.70;99.90
16140;DHT22;8175;49.326;12.690;2024-01-11T00:34:58;-8.60;99.90
16140;DHT22;8175;49.326;12.690;2024-01-11T00:37:24;-8.60;99.90
16140;DHT22;8175;49.326;12.690;2024-01-11T00:39:50;-8.70;99.90
16140;DHT22;8175;49.326;12.690;2024-01-11T00:42:16;-8.70;99.90
16140;DHT22;8175;49.326;12.690;2024-01-11T00:44:41;-8.70;99.90
16140;DHT22;8175;49.326;12.690;2024-01-11T00:47:07;-8.60;99.90
16140;DHT22;8175;49.326;12.690;2024-01-11T00:49:33;-8.60;99.90
16140;DHT22;8175;49.326;12.690;2024-01-11T00:51:59;-8.50;99.90
16140;DHT22;8175;49.326;12.690;2024-01-11T00:54:25;-8.50;99.90
16140;DHT22;8175;49.326;12.690;2024-01-11T00:56:50;-8.50;99.90
16140;DHT22;8175;49.326;12.690;2024-01-11T00:59:16;-8.60;99.90
16140;DHT22;8175;49.326;12.690;2024-01-11T01:01:50;-8.60;99.90
16140;DHT22;8175;49.326;12.690;2024-01-11T01:04:16;-8.60;99.90
16140;DHT22;8175;49.326;12.690;2024-01-11T01:06:41;-8.60;99.90
16140;DHT22;8175;49.326;12.690;2024-01-11T01:09:07;-8.60;99.90
16140;DHT22;8175;49.326;12.690;2024-01-11T01:11:33;-8.70;99.90
16140;DHT22;8175;49.326;12.690;2024-01-11T01:13:59;-8.60;99.90
16140;DHT22;8175;49.326;12.690;2024-01-11T01:16:24;-8.60;99.90
16140;DHT22;8175;49.326;12.690;2024-01-11T01:18:50;-8.70;99.90
16140;DHT22;8175;49.326;12.690;2024-01-11T01:21:15;-8.70;99.90
16140;DHT22;8175;49.326;12.690;2024-01-11T01:23:41;-8.80;99.90
16140;DHT22;8175;49.326;12.690;2024-01-11T01:26:07;-8.80;99.90
16140;DHT22;8175;49.326;12.690;2024-01-11T01:28:32;-8.70;99.90
16140;DHT22;8175;49.326;12.690;2024-01-11T01:30:58;-8.70;99.90
16140;DHT22;8175;49.326;12.690;2024-01-11T01:33:24;-8.60;99.90
16140;DHT22;8175;49.326;12.690;2024-01-11T01:35:49;-8.80;99.90
16140;DHT22;8175;49.326;12.690;2024-01-11T01:38:15;-8.90;99.90
16140;DHT22;8175;49.326;12.690;2024-01-11T01:40:43;-8.90;99.90
16140;DHT22;8175;49.326;12.690;2024-01-11T01:43:09;-8.90;99.90
16140;DHT22;8175;49.326;12.690;2024-01-11T01:45:35;-8.80;99.90
16140;DHT22;8175;49.326;12.690;2024-01-11T01:48:02;-8.70;99.90
16140;DHT22;8175;49.326;12.690;2024-01-11T01:50:28;-8.50;99.90
16140;DHT22;8175;49.326;12.690;2024-01-11T01:52:55;-8.50;99.90
16140;DHT22;8175;49.326;12.690;2024-01-11T01:55:22;-8.50;99.90
16140;DHT22;8175;49.326;12.690;2024-01-11T01:57:49;-8.50;99.90
16140;DHT22;8175;49.326;12.690;2024-01-11T02:00:16;-8.50;99.90
16140;DHT22;8175;49.326;12.690;2024-01-11T02:02:43;-8.50;99.90
16140;DHT22;8175;49.326;12.690;2024-01-11T02:05:11;-8.50;99.90
16140;DHT22;8175;49.326;12.690;2024-01-11T02:07:38;-8.60;99.90
16140;DHT22;8175;49.326;12.690;2024-01-11T02:10:05;-8.70;99.90
16140;DHT22;8175;49.326;12.690;2024-01-11T02:12:32;-8.80;99.90
16140;DHT22;8175;49.326;12.690;2024-01-11T02:14:59;-9.00;99.90
16140;DHT22;8175;49.326;12.690;2024-01-11T02:17:25;-8.90;99.90
16140;DHT22;8175;49.326;12.690;2024-01-11T02:19:51;-8.90;99.90
16140;DHT22;8175;49.326;12.690;2024-01-11T02:22:22;-9.00;99.90
16140;DHT22;8175;49.326;12.690;2024-01-11T02:24:49;-9.00;99.90
16140;DHT22;8175;49.326;12.690;2024-01-11T02:27:15;-9.00;99.90
16140;DHT22;8175;49.326;12.690;2024-01-11T02:29:41;-8.90;99.90
16140;DHT22;8175;49.326;12.690;2024-01-11T02:32:06;-8.70;99.90
16140;DHT22;8175;49.326;12.690;2024-01-11T02:34:34;-8.40;99.90
16140;DHT22;8175;49.326;12.690;2024-01-11T02:37:00;-8.40;99.90
16140;DHT22;8175;49.326;12.690;2024-01-11T02:39:26;-8.40;99.90
16140;DHT22;8175;49.326;12.690;2024-01-11T02:41:53;-8.50;99.90
16140;DHT22;8175;49.326;12.690;2024-01-11T02:44:19;-8.60;99.90
16140;DHT22;8175;49.326;12.690;2024-01-11T02:46:45;-8.60;99.90
16140;DHT22;8175;49.326;12.690;2024-01-11T02:49:10;-8.50;99.90
16140;DHT22;8175;49.326;12.690;2024-01-11T02:51:36;-8.30;99.90
16140;DHT22;8175;49.326;12.690;2024-01-11T02:54:02;-8.30;99.90
16140;DHT22;8175;49.326;12.690;2024-01-11T02:56:27;-8.40;99.90
16140;DHT22;8175;49.326;12.690;2024-01-11T02:58:53;-8.40;99.90
16140;DHT22;8175;49.326;12.690;2024-01-11T03:01:19;-8.40;99.90
16140;DHT22;8175;49.326;12.690;2024-01-11T03:03:44;-8.50;99.90
16140;DHT22;8175;49.326;12.690;2024-01-11T03:06:10;-8.70;99.90
16140;DHT22;8175;49.326;12.690;2024-01-11T03:08:36;-8.70;99.90
16140;DHT22;8175;49.326;12.690;2024-01-11T03:11:01;-8.80;99.90
16140;DHT22;8175;49.326;12.690;2024-01-11T03:13:27;-8.90;99.90
16140;DHT22;8175;49.326;12.690;2024-01-11T03:15:53;-9.00;99.90
16140;DHT22;8175;49.326;12.690;2024-01-11T03:18:18;-9.10;99.90
16140;DHT22;8175;49.326;12.690;2024-01-11T03:20:44;-9.10;99.90
16140;DHT22;8175;49.326;12.690;2024-01-11T03:23:10;-9.10;99.90
16140;DHT22;8175;49.326;12.690;2024-01-11T03:25:35;-9.00;99.90
16140;DHT22;8175;49.326;12.690;2024-01-11T03:28:01;-9.00;99.90
16140;DHT22;8175;49.326;12.690;2024-01-11T03:30:26;-9.00;99.90
16140;DHT22;8175;49.326;12.690;2024-01-11T03:32:52;-9.00;99.90
16140;DHT22;8175;49.326;12.690;2024-01-11T03:35:18;-9.00;99.90
16140;DHT22;8175;49.326;12.690;2024-01-11T03:37:44;-8.80;99.90
16140;DHT22;8175;49.326;12.690;2024-01-11T03:40:10;-8.60;99.90
16140;DHT22;8175;49.326;12.690;2024-01-11T03:42:36;-8.60;99.90
16140;DHT22;8175;49.326;12.690;2024-01-11T03:45:03;-8.60;99.90
16140;DHT22;8175;49.326;12.690;2024-01-11T03:47:29;-8.70;99.90
16140;DHT22;8175;49.326;12.690;2024-01-11T03:49:55;-8.70;99.90
16140;DHT22;8175;49.326;12.690;2024-01-11T03:52:21;-8.70;99.90
16140;DHT22;8175;49.326;12.690;2024-01-11T03:54:46;-8.70;99.90
16140;DHT22;8175;49.326;12.690;2024-01-11T03:57:12;-8.70;99.90
16140;DHT22;8175;49.326;12.690;2024-01-11T03:59:38;-8.70;99.90
16140;DHT22;8175;49.326;12.690;2024-01-11T04:02:03;-8.80;99.90
16140;DHT22;8175;49.326;12.690;2024-01-11T04:04:29;-9.00;99.90
16140;DHT22;8175;49.326;12.690;2024-01-11T04:06:55;-9.10;99.90
16140;DHT22;8175;49.326;12.690;2024-01-11T04:09:20;-9.10;99.90
16140;DHT22;8175;49.326;12.690;2024-01-11T04:11:46;-9.10;99.90
16140;DHT22;8175;49.326;12.690;2024-01-11T04:14:12;-9.10;99.90
16140;DHT22;8175;49.326;12.690;2024-01-11T04:16:41;-9.10;99.90
16140;DHT22;8175;49.326;12.690;2024-01-11T04:19:07;-9.00;99.90
16140;DHT22;8175;49.326;12.690;2024-01-11T04:21:33;-8.90;99.90
16140;DHT22;8175;49.326;12.690;2024-01-11T04:23:59;-8.90;99.90
16140;DHT22;8175;49.326;12.690;2024-01-11T04:26:24;-8.90;99.90
16140;DHT22;8175;49.326;12.690;2024-01-11T04:28:51;-8.90;99.90
16140;DHT22;8175;49.326;12.690;2024-01-11T04:31:17;-8.80;99.90
16140;DHT22;8175;49.326;12.690;2024-01-11T04:33:44;-8.80;99.90
16140;DHT22;8175;49.326;12.690;2024-01-11T04:36:11;-8.90;99.90
16140;DHT22;8175;49.326;12.690;2024-01-11T04:38:37;-8.90;99.90
16140;DHT22;8175;49.326;12.690;2024-01-11T04:41:09;-8.90;99.90
16140;DHT22;8175;49.326;12.690;2024-01-11T04:43:43;-8.90;99.90
16140;DHT22;8175;49.326;12.690;2024-01-11T04:46:19;-8.90;99.90
16140;DHT22;8175;49.326;12.690;2024-01-11T04:48:46;-8.90;99.90
16140;DHT22;8175;49.326;12.690;2024-01-11T04:51:13;-8.90;99.90
16140;DHT22;8175;49.326;12.690;2024-01-11T04:53:42;-9.00;99.90
16140;DHT22;8175;49.326;12.690;2024-01-11T04:56:10;-9.00;99.90
16140;DHT22;8175;49.326;12.690;2024-01-11T04:58:36;-9.10;99.90
16140;DHT22;8175;49.326;12.690;2024-01-11T05:01:04;-9.10;99.90
16140;DHT22;8175;49.326;12.690;2024-01-11T05:03:30;-9.20;99.90
16140;DHT22;8175;49.326;12.690;2024-01-11T05:05:57;-9.20;99.90
16140;DHT22;8175;49.326;12.690;2024-01-11T05:08:23;-9.20;99.90
16140;DHT22;8175;49.326;12.690;2024-01-11T05:10:49;-9.20;99.90
16140;DHT22;8175;49.326;12.690;2024-01-11T05:13:15;-9.20;99.90
16140;DHT22;8175;49.326;12.690;2024-01-11T05:15:41;-9.20;99.90
16140;DHT22;8175;49.326;12.690;2024-01-11T05:18:06;-9.20;99.90
16140;DHT22;8175;49.326;12.690;2024-01-11T05:20:32;-9.20;99.90
16140;DHT22;8175;49.326;12.690;2024-01-11T05:22:58;-9.00;99.90
16140;DHT22;8175;49.326;12.690;2024-01-11T05:25:23;-9.00;99.90
16140;DHT22;8175;49.326;12.690;2024-01-11T05:27:49;-9.00;99.90
16140;DHT22;8175;49.326;12.690;2024-01-11T05:30:15;-9.00;99.90
16140;DHT22;8175;49.326;12.690;2024-01-11T05:32:40;-9.10;99.90
16140;DHT22;8175;49.326;12.690;2024-01-11T05:35:06;-8.90;99.90
16140;DHT22;8175;49.326;12.690;2024-01-11T05:37:32;-8.90;99.90
16140;DHT22;8175;49.326;12.690;2024-01-11T05:39:57;-8.90;99.90
16140;DHT22;8175;49.326;12.690;2024-01-11T05:42:23;-8.90;99.90
16140;DHT22;8175;49.326;12.690;2024-01-11T05:44:50;-8.90;99.90
16140;DHT22;8175;49.326;12.690;2024-01-11T05:47:15;-8.90;99.90
16140;DHT22;8175;49.326;12.690;2024-01-11T05:49:41;-8.90;99.90
16140;DHT22;8175;49.326;12.690;2024-01-11T05:52:07;-8.90;99.90
16140;DHT22;8175;49.326;12.690;2024-01-11T05:54:32;-8.90;99.90
16140;DHT22;8175;49.326;12.690;2024-01-11T05:56:58;-8.80;99.90
16140;DHT22;8175;49.326;12.690;2024-01-11T05:59:25;-8.80;99.90
16140;DHT22;8175;49.326;12.690;2024-01-11T06:01:51;-8.80;99.90
16140;DHT22;8175;49.326;12.690;2024-01-11T06:04:17;-8.80;99.90
16140;DHT22;8175;49.326;12.690;2024-01-11T06:06:42;-8.90;99.90
16140;DHT22;8175;49.326;12.690;2024-01-11T06:09:08;-8.80;99.90
16140;DHT22;8175;49.326;12.690;2024-01-11T06:11:35;-8.70;99.90
16140;DHT22;8175;49.326;12.690;2024-01-11T06:14:01;-8.60;99.90
16140;DHT22;8175;49.326;12.690;2024-01-11T06:16:28;-8.70;99.90
16140;DHT22;8175;49.326;12.690;2024-01-11T06:18:53;-8.90;99.90
16140;DHT22;8175;49.326;12.690;2024-01-11T06:21:19;-9.00;99.90
16140;DHT22;8175;49.326;12.690;2024-01-11T06:23:45;-8.80;99.90
16140;DHT22;8175;49.326;12.690;2024-01-11T06:26:10;-8.80;99.90
16140;DHT22;8175;49.326;12.690;2024-01-11T06:28:36;-8.70;99.90
16140;DHT22;8175;49.326;12.690;2024-01-11T06:31:01;-8.80;99.90
16140;DHT22;8175;49.326;12.690;2024-01-11T06:33:27;-9.00;99.90
16140;DHT22;8175;49.326;12.690;2024-01-11T06:35:53;-9.00;99.90
16140;DHT22;8175;49.326;12.690;2024-01-11T06:38:19;-9.10;99.90
16140;DHT22;8175;49.326;12.690;2024-01-11T06:40:45;-9.20;99.90
16140;DHT22;8175;49.326;12.690;2024-01-11T06:43:10;-9.10;99.90
16140;DHT22;8175;49.326;12.690;2024-01-11T06:45:36;-9.10;99.90
16140;DHT22;8175;49.326;12.690;2024-01-11T06:48:02;-9.10;99.90
16140;DHT22;8175;49.326;12.690;2024-01-11T06:50:28;-9.00;99.90
16140;DHT22;8175;49.326;12.690;2024-01-11T06:52:54;-8.90;99.90
16140;DHT22;8175;49.326;12.690;2024-01-11T06:55:19;-8.90;99.90
16140;DHT22;8175;49.326;12.690;2024-01-11T06:57:48;-9.00;99.90
16140;DHT22;8175;49.326;12.690;2024-01-11T07:00:14;-8.90;99.90
16140;DHT22;8175;49.326;12.690;2024-01-11T07:02:40;-8.80;99.90
16140;DHT22;8175;49.326;12.690;2024-01-11T07:05:06;-8.90;99.90
16140;DHT22;8175;49.326;12.690;2024-01-11T07:07:33;-9.00;99.90
16140;DHT22;8175;49.326;12.690;2024-01-11T07:09:59;-9.00;99.90
16140;DHT22;8175;49.326;12.690;2024-01-11T07:12:25;-8.90;99.90
16140;DHT22;8175;49.326;12.690;2024-01-11T07:14:53;-8.80;99.90
16140;DHT22;8175;49.326;12.690;2024-01-11T07:17:19;-8.70;99.90
16140;DHT22;8175;49.326;12.690;2024-01-11T07:19:44;-8.70;99.90
16140;DHT22;8175;49.326;12.690;2024-01-11T07:22:10;-8.70;99.90
16140;DHT22;8175;49.326;12.690;2024-01-11T07:24:36;-8.80;99.90
16140;DHT22;8175;49.326;12.690;2024-01-11T07:27:06;-8.80;99.90
16140;DHT22;8175;49.326;12.690;2024-01-11T07:29:32;-8.90;99.90
16140;DHT22;8175;49.326;12.690;2024-01-11T07:31:58;-8.90;99.90
16140;DHT22;8175;49.326;12.690;2024-01-11T07:34:24;-8.90;99.90
16140;DHT22;8175;49.326;12.690;2024-01-11T07:36:51;-8.90;99.90
16140;DHT22;8175;49.326;12.690;2024-01-11T07:39:17;-8.80;99.90
16140;DHT22;8175;49.326;12.690;2024-01-11T07:41:42;-8.60;99.90
16140;DHT22;8175;49.326;12.690;2024-01-11T07:44:08;-8.70;99.90
16140;DHT22;8175;49.326;12.690;2024-01-11T07:46:34;-8.60;99.90
16140;DHT22;8175;49.326;12.690;2024-01-11T07:48:59;-8.60;99.90
16140;DHT22;8175;49.326;12.690;2024-01-11T07:51:25;-8.70;99.90
16140;DHT22;8175;49.326;12.690;2024-01-11T07:53:51;-8.70;99.90
16140;DHT22;8175;49.326;12.690;2024-01-11T07:56:16;-8.60;99.90
16140;DHT22;8175;49.326;12.690;2024-01-11T07:58:42;-8.60;99.90
16140;DHT22;8175;49.326;12.690;2024-01-11T08:01:09;-8.30;99.90
16140;DHT22;8175;49.326;12.690;2024-01-11T08:03:35;-8.10;99.90
16140;DHT22;8175;49.326;12.690;2024-01-11T08:06:01;-8.00;99.90
16140;DHT22;8175;49.326;12.690;2024-01-11T08:08:27;-7.90;99.90
16140;DHT22;8175;49.326;12.690;2024-01-11T08:10:53;-7.80;99.90
16140;DHT22;8175;49.326;12.690;2024-01-11T08:13:19;-7.50;99.90
16140;DHT22;8175;49.326;12.690;2024-01-11T08:15:46;-7.50;99.90
16140;DHT22;8175;49.326;12.690;2024-01-11T08:18:12;-7.60;99.90
16140;DHT22;8175;49.326;12.690;2024-01-11T08:20:39;-7.60;99.90
16140;DHT22;8175;49.326;12.690;2024-01-11T08:23:05;-7.70;99.90
16140;DHT22;8175;49.326;12.690;2024-01-11T08:25:30;-7.70;99.90
16140;DHT22;8175;49.326;12.690;2024-01-11T08:27:56;-7.60;99.90
16140;DHT22;8175;49.326;12.690;2024-01-11T08:30:21;-7.50;99.90
16140;DHT22;8175;49.326;12.690;2024-01-11T08:32:47;-7.30;99.90
16140;DHT22;8175;49.326;12.690;2024-01-11T08:35:14;-6.90;99.90
16140;DHT22;8175;49.326;12.690;2024-01-11T08:37:40;-6.60;99.90
16140;DHT22;8175;49.326;12.690;2024-01-11T08:40:06;-6.10;99.90
16140;DHT22;8175;49.326;12.690;2024-01-11T08:42:32;-5.50;99.90
16140;DHT22;8175;49.326;12.690;2024-01-11T08:44:58;-5.20;99.90
16140;DHT22;8175;49.326;12.690;2024-01-11T08:47:24;-5.00;99.90
16140;DHT22;8175;49.326;12.690;2024-01-11T08:49:50;-4.70;99.90
16140;DHT22;8175;49.326;12.690;2024-01-11T08:52:15;-4.40;99.90
16140;DHT22;8175;49.326;12.690;2024-01-11T08:54:41;-4.50;99.90
16140;DHT22;8175;49.326;12.690;2024-01-11T08:57:06;-4.40;99.90
16140;DHT22;8175;49.326;12.690;2024-01-11T08:59:32;-4.20;99.90
16140;DHT22;8175;49.326;12.690;2024-01-11T09:01:58;-4.20;99.90
16140;DHT22;8175;49.326;12.690;2024-01-11T09:04:24;-4.30;99.90
16140;DHT22;8175;49.326;12.690;2024-01-11T09:06:49;-4.30;99.90
16140;DHT22;8175;49.326;12.690;2024-01-11T09:09:15;-4.40;99.90
16140;DHT22;8175;49.326;12.690;2024-01-11T09:11:42;-4.40;99.90
16140;DHT22;8175;49.326;12.690;2024-01-11T09:14:08;-4.40;99.90
16140;DHT22;8175;49.326;12.690;2024-01-11T09:16:36;-4.20;99.90
16140;DHT22;8175;49.326;12.690;2024-01-11T09:19:02;-4.20;99.90
16140;DHT22;8175;49.326;12.690;2024-01-11T09:21:28;-4.10;99.90
16140;DHT22;8175;49.326;12.690;2024-01-11T09:23:54;-4.10;99.90
16140;DHT22;8175;49.326;12.690;2024-01-11T09:26:20;-4.10;99.90
16140;DHT22;8175;49.326;12.690;2024-01-11T09:28:48;-3.90;99.90
16140;DHT22;8175;49.326;12.690;2024-01-11T09:31:13;-3.50;99.90
16140;DHT22;8175;49.326;12.690;2024-01-11T09:33:39;-3.20;99.90
16140;DHT22;8175;49.326;12.690;2024-01-11T09:36:07;-2.40;99.90
16140;DHT22;8175;49.326;12.690;2024-01-11T09:38:34;-1.30;99.90
16140;DHT22;8175;49.326;12.690;2024-01-11T09:41:07;-0.30;99.90
16140;DHT22;8175;49.326;12.690;2024-01-11T09:43:36;0.60;99.90
16140;DHT22;8175;49.326;12.690;2024-01-11T09:46:04;1.40;99.90
16140;DHT22;8175;49.326;12.690;2024-01-11T09:48:33;2.60;99.90
16140;DHT22;8175;49.326;12.690;2024-01-11T09:51:01;3.00;99.90
16140;DHT22;8175;49.326;12.690;2024-01-11T09:53:28;3.10;99.90
16140;DHT22;8175;49.326;12.690;2024-01-11T09:55:55;3.60;99.90
16140;DHT22;8175;49.326;12.690;2024-01-11T09:58:21;5.00;99.90
16140;DHT22;8175;49.326;12.690;2024-01-11T10:00:49;5.00;96.90
16140;DHT22;8175;49.326;12.690;2024-01-11T10:03:18;5.90;99.90
16140;DHT22;8175;49.326;12.690;2024-01-11T10:05:45;6.90;99.90
16140;DHT22;8175;49.326;12.690;2024-01-11T10:08:12;7.20;94.30
16140;DHT22;8175;49.326;12.690;2024-01-11T10:10:37;7.20;83.10
16140;DHT22;8175;49.326;12.690;2024-01-11T10:13:04;7.20;90.00
16140;DHT22;8175;49.326;12.690;2024-01-11T10:15:30;7.30;76.40
16140;DHT22;8175;49.326;12.690;2024-01-11T10:17:56;7.30;69.80
16140;DHT22;8175;49.326;12.690;2024-01-11T10:20:21;7.10;64.40
16140;DHT22;8175;49.326;12.690;2024-01-11T10:22:49;6.90;63.00
16140;DHT22;8175;49.326;12.690;2024-01-11T10:25:16;5.90;65.20
16140;DHT22;8175;49.326;12.690;2024-01-11T10:27:44;5.60;70.60
16140;DHT22;8175;49.326;12.690;2024-01-11T10:30:11;5.40;70.60
16140;DHT22;8175;49.326;12.690;2024-01-11T10:32:46;5.40;72.40
16140;DHT22;8175;49.326;12.690;2024-01-11T10:35:13;6.00;76.40
16140;DHT22;8175;49.326;12.690;2024-01-11T10:37:39;7.20;69.60
16140;DHT22;8175;49.326;12.690;2024-01-11T10:40:08;7.40;63.30
16140;DHT22;8175;49.326;12.690;2024-01-11T10:42:45;8.00;69.90
16140;DHT22;8175;49.326;12.690;2024-01-11T10:45:19;8.70;62.20
16140;DHT22;8175;49.326;12.690;2024-01-11T10:48:02;8.90;55.90
16140;DHT22;8175;49.326;12.690;2024-01-11T10:50:36;8.80;53.70
16140;DHT22;8175;49.326;12.690;2024-01-11T10:53:12;9.20;51.90
16140;DHT22;8175;49.326;12.690;2024-01-11T10:55:39;9.30;51.90
16140;DHT22;8175;49.326;12.690;2024-01-11T10:58:06;9.30;49.00
16140;DHT22;8175;49.326;12.690;2024-01-11T11:00:34;9.50;46.70
16140;DHT22;8175;49.326;12.690;2024-01-11T11:03:00;9.10;47.90
16140;DHT22;8175;49.326;12.690;2024-01-11T11:05:29;9.70;46.20
16140;DHT22;8175;49.326;12.690;2024-01-11T11:07:59;9.60;48.30
16140;DHT22;8175;49.326;12.690;2024-01-11T11:10:26;9.90;44.80
16140;DHT22;8175;49.326;12.690;2024-01-11T11:12:54;10.20;43.00
16140;DHT22;8175;49.326;12.690;2024-01-11T11:15:22;10.20;43.60
16140;DHT22;8175;49.326;12.690;2024-01-11T11:17:49;10.00;42.90
16140;DHT22;8175;49.326;12.690;2024-01-11T11:20:15;10.10;41.30
16140;DHT22;8175;49.326;12.690;2024-01-11T11:22:42;9.40;44.10
16140;DHT22;8175;49.326;12.690;2024-01-11T11:25:23;9.30;45.00
16140;DHT22;8175;49.326;12.690;2024-01-11T11:27:49;9.40;44.60
16140;DHT22;8175;49.326;12.690;2024-01-11T11:30:14;9.90;43.60
16140;DHT22;8175;49.326;12.690;2024-01-11T11:32:45;9.60;43.70
16140;DHT22;8175;49.326;12.690;2024-01-11T11:35:11;10.00;42.50
16140;DHT22;8175;49.326;12.690;2024-01-11T11:37:37;10.40;41.20
16140;DHT22;8175;49.326;12.690;2024-01-11T11:40:04;10.30;41.50
16140;DHT22;8175;49.326;12.690;2024-01-11T11:42:31;10.70;40.90
16140;DHT22;8175;49.326;12.690;2024-01-11T11:44:57;10.90;38.60
16140;DHT22;8175;49.326;12.690;2024-01-11T11:47:24;11.20;38.90
16140;DHT22;8175;49.326;12.690;2024-01-11T11:50:10;10.80;38.50
16140;DHT22;8175;49.326;12.690;2024-01-11T11:52:38;10.70;40.30
16140;DHT22;8175;49.326;12.690;2024-01-11T11:55:06;10.70;38.50
16140;DHT22;8175;49.326;12.690;2024-01-11T11:57:34;10.30;39.30
16140;DHT22;8175;49.326;12.690;2024-01-11T12:00:00;10.20;39.10
16140;DHT22;8175;49.326;12.690;2024-01-11T12:02:27;10.30;37.90
16140;DHT22;8175;49.326;12.690;2024-01-11T12:04:53;10.00;39.90
16140;DHT22;8175;49.326;12.690;2024-01-11T12:07:20;10.50;39.60
16140;DHT22;8175;49.326;12.690;2024-01-11T12:09:46;10.50;37.70
16140;DHT22;8175;49.326;12.690;2024-01-11T12:12:13;11.30;36.60
16140;DHT22;8175;49.326;12.690;2024-01-11T12:14:38;10.50;36.40
16140;DHT22;8175;49.326;12.690;2024-01-11T12:17:06;10.60;35.60
16140;DHT22;8175;49.326;12.690;2024-01-11T12:19:31;10.80;35.40
16140;DHT22;8175;49.326;12.690;2024-01-11T12:21:58;11.00;35.30
16140;DHT22;8175;49.326;12.690;2024-01-11T12:24:23;11.70;33.60
16140;DHT22;8175;49.326;12.690;2024-01-11T12:26:50;11.30;33.50
16140;DHT22;8175;49.326;12.690;2024-01-11T12:29:19;10.30;35.30
16140;DHT22;8175;49.326;12.690;2024-01-11T12:31:45;10.10;36.50
16140;DHT22;8175;49.326;12.690;2024-01-11T12:34:14;9.90;36.80
16140;DHT22;8175;49.326;12.690;2024-01-11T12:36:41;10.00;37.10
16140;DHT22;8175;49.326;12.690;2024-01-11T12:39:07;9.40;38.30
16140;DHT22;8175;49.326;12.690;2024-01-11T12:41:34;10.10;37.20
16140;DHT22;8175;49.326;12.690;2024-01-11T12:44:01;10.50;36.80
16140;DHT22;8175;49.326;12.690;2024-01-11T12:46:27;10.00;36.70
16140;DHT22;8175;49.326;12.690;2024-01-11T12:48:52;10.50;36.50
16140;DHT22;8175;49.326;12.690;2024-01-11T12:51:18;11.30;35.90
16140;DHT22;8175;49.326;12.690;2024-01-11T12:53:48;10.30;35.40
16140;DHT22;8175;49.326;12.690;2024-01-11T12:56:15;10.10;37.00
16140;DHT22;8175;49.326;12.690;2024-01-11T12:58:41;9.80;37.70
16140;DHT22;8175;49.326;12.690;2024-01-11T13:01:08;9.70;40.20
16140;DHT22;8175;49.326;12.690;2024-01-11T13:03:54;9.70;38.50
16140;DHT22;8175;49.326;12.690;2024-01-11T13:06:21;9.20;38.80
16140;DHT22;8175;49.326;12.690;2024-01-11T13:08:47;8.80;40.40
16140;DHT22;8175;49.326;12.690;2024-01-11T13:11:13;8.40;40.50
16140;DHT22;8175;49.326;12.690;2024-01-11T13:13:41;7.90;42.20
16140;DHT22;8175;49.326;12.690;2024-01-11T13:16:07;8.40;43.50
16140;DHT22;8175;49.326;12.690;2024-01-11T13:18:36;8.50;43.30
16140;DHT22;8175;49.326;12.690;2024-01-11T13:21:02;9.90;40.10
16140;DHT22;8175;49.326;12.690;2024-01-11T13:23:28;10.50;37.40
16140;DHT22;8175;49.326;12.690;2024-01-11T13:25:54;9.90;37.20
16140;DHT22;8175;49.326;12.690;2024-01-11T13:28:19;8.90;38.90
16140;DHT22;8175;49.326;12.690;2024-01-11T13:30:45;7.80;40.90
16140;DHT22;8175;49.326;12.690;2024-01-11T13:33:11;6.70;44.90
16140;DHT22;8175;49.326;12.690;2024-01-11T13:35:38;6.00;48.80
16140;DHT22;8175;49.326;12.690;2024-01-11T13:38:04;6.00;51.20
16140;DHT22;8175;49.326;12.690;2024-01-11T13:40:31;6.30;50.20
16140;DHT22;8175;49.326;12.690;2024-01-11T13:42:57;5.90;51.50
16140;DHT22;8175;49.326;12.690;2024-01-11T13:45:23;5.80;53.10
16140;DHT22;8175;49.326;12.690;2024-01-11T13:47:50;6.00;52.70
16140;DHT22;8175;49.326;12.690;2024-01-11T13:50:16;6.20;53.90
16140;DHT22;8175;49.326;12.690;2024-01-11T13:52:43;6.40;52.50
16140;DHT22;8175;49.326;12.690;2024-01-11T13:55:09;6.60;50.80
16140;DHT22;8175;49.326;12.690;2024-01-11T13:57:38;6.60;51.80
16140;DHT22;8175;49.326;12.690;2024-01-11T14:00:04;7.20;49.90
16140;DHT22;8175;49.326;12.690;2024-01-11T14:02:30;7.20;48.90
16140;DHT22;8175;49.326;12.690;2024-01-11T14:04:57;6.90;49.40
16140;DHT22;8175;49.326;12.690;2024-01-11T14:07:23;6.10;51.80
16140;DHT22;8175;49.326;12.690;2024-01-11T14:09:50;5.30;55.30
16140;DHT22;8175;49.326;12.690;2024-01-11T14:12:15;4.70;57.20
16140;DHT22;8175;49.326;12.690;2024-01-11T14:14:42;4.30;59.80
16140;DHT22;8175;49.326;12.690;2024-01-11T14:17:08;4.00;62.20
16140;DHT22;8175;49.326;12.690;2024-01-11T14:19:34;3.90;64.10
16140;DHT22;8175;49.326;12.690;2024-01-11T14:22:00;3.80;63.60
16140;DHT22;8175;49.326;12.690;2024-01-11T14:24:26;3.40;66.20
16140;DHT22;8175;49.326;12.690;2024-01-11T14:26:52;2.80;70.90
16140;DHT22;8175;49.326;12.690;2024-01-11T14:29:18;2.30;73.80
16140;DHT22;8175;49.326;12.690;2024-01-11T14:31:43;1.70;80.90
16140;DHT22;8175;49.326;12.690;2024-01-11T14:34:09;1.60;89.50
16140;DHT22;8175;49.326;12.690;2024-01-11T14:36:36;1.80;89.40
16140;DHT22;8175;49.326;12.690;2024-01-11T14:39:02;1.90;88.70
16140;DHT22;8175;49.326;12.690;2024-01-11T14:41:30;2.20;85.40
16140;DHT22;8175;49.326;12.690;2024-01-11T14:43:56;2.50;86.80
16140;DHT22;8175;49.326;12.690;2024-01-11T14:46:22;2.80;85.00
16140;DHT22;8175;49.326;12.690;2024-01-11T14:48:47;3.10;84.00
16140;DHT22;8175;49.326;12.690;2024-01-11T14:51:14;3.40;81.60
16140;DHT22;8175;49.326;12.690;2024-01-11T14:53:39;3.30;81.50
16140;DHT22;8175;49.326;12.690;2024-01-11T14:56:06;2.80;81.60
16140;DHT22;8175;49.326;12.690;2024-01-11T14:58:31;2.30;83.70
16140;DHT22;8175;49.326;12.690;2024-01-11T15:00:57;1.70;86.90
16140;DHT22;8175;49.326;12.690;2024-01-11T15:03:23;1.30;90.60
16140;DHT22;8175;49.326;12.690;2024-01-11T15:05:51;0.70;92.60
16140;DHT22;8175;49.326;12.690;2024-01-11T15:08:18;0.30;96.10
16140;DHT22;8175;49.326;12.690;2024-01-11T15:10:44;-0.20;99.90
16140;DHT22;8175;49.326;12.690;2024-01-11T15:13:10;-0.50;99.90
16140;DHT22;8175;49.326;12.690;2024-01-11T15:15:36;-0.80;99.90
16140;DHT22;8175;49.326;12.690;2024-01-11T15:18:02;-1.00;99.90
16140;DHT22;8175;49.326;12.690;2024-01-11T15:20:28;-1.20;99.90
16140;DHT22;8175;49.326;12.690;2024-01-11T15:22:54;-1.40;99.90
16140;DHT22;8175;49.326;12.690;2024-01-11T15:25:20;-1.60;99.90
16140;DHT22;8175;49.326;12.690;2024-01-11T15:27:46;-1.80;99.90
16140;DHT22;8175;49.326;12.690;2024-01-11T15:30:12;-2.00;99.90